createdAt,value
2023-05-20T00:01:28.028Z,71.07
2023-05-20T00:03:30.797Z,71.00
2023-05-20T00:05:33.500Z,71.09
2023-05-20T00:07:36.067Z,71.19
2023-05-20T00:09:40.837Z,71.11
2023-05-20T00:11:43.482Z,71.38
2023-05-20T00:13:48.306Z,71.12
2023-05-20T00:15:50.861Z,71.13
2023-05-20T00:17:53.521Z,71.03
2023-05-20T00:19:56.258Z,71.11
2023-05-20T00:21:59.038Z,71.06
2023-05-20T00:24:01.688Z,70.77
2023-05-20T00:26:05.791Z,71.50
2023-05-20T00:28:08.380Z,71.53
2023-05-20T00:30:12.058Z,71.46
2023-05-20T00:32:14.974Z,71.71
2023-05-20T00:34:17.590Z,71.65
2023-05-20T00:36:20.665Z,71.62
2023-05-20T00:38:23.353Z,71.53
2023-05-20T00:40:26.016Z,71.56
2023-05-20T00:42:30.308Z,71.39
2023-05-20T00:44:33.366Z,71.19
2023-05-20T00:46:36.857Z,71.38
2023-05-20T00:48:43.405Z,71.29
2023-05-20T00:50:46.082Z,71.33
2023-05-20T00:52:51.669Z,72.21
2023-05-20T00:54:54.257Z,72.19
2023-05-20T00:56:57.795Z,72.68
2023-05-20T00:59:01.872Z,72.55
2023-05-20T01:01:04.644Z,72.84
2023-05-20T01:03:07.441Z,72.73
2023-05-20T01:05:10.500Z,72.49
2023-05-20T01:07:14.767Z,72.51
2023-05-20T01:09:17.410Z,72.59
2023-05-20T01:11:27.366Z,72.62
2023-05-20T01:13:36.938Z,72.47
2023-05-20T01:15:43.133Z,72.30
2023-05-20T01:17:48.013Z,72.27
2023-05-20T01:19:51.474Z,72.45
2023-05-20T01:21:55.111Z,71.62
2023-05-20T01:23:59.080Z,72.42
2023-05-20T01:26:01.636Z,72.75
2023-05-20T01:28:05.042Z,72.90
2023-05-20T01:30:09.043Z,72.92
2023-05-20T01:32:16.296Z,72.90
2023-05-20T01:34:19.456Z,72.62
2023-05-20T01:36:22.637Z,72.73
2023-05-20T01:38:26.290Z,72.25
2023-05-20T01:40:32.551Z,72.52
2023-05-20T01:42:36.386Z,72.63
2023-05-20T01:44:39.323Z,72.53
2023-05-20T01:46:41.969Z,72.42
2023-05-20T01:48:44.653Z,72.48
2023-05-20T01:50:47.266Z,72.58
2023-05-20T01:52:50.026Z,72.85
2023-05-20T01:54:52.609Z,72.61
2023-05-20T01:56:57.029Z,72.36
2023-05-20T01:58:59.692Z,72.53
2023-05-20T02:01:02.688Z,72.69
2023-05-20T02:03:05.442Z,72.48
2023-05-20T02:05:08.729Z,72.38
2023-05-20T02:07:11.278Z,72.65
2023-05-20T02:09:14.129Z,72.81
2023-05-20T02:11:16.720Z,72.91
2023-05-20T02:13:20.774Z,72.83
2023-05-20T02:15:23.421Z,73.13
2023-05-20T02:17:27.385Z,73.01
2023-05-20T02:19:30.154Z,72.86
2023-05-20T02:21:32.835Z,73.04
2023-05-20T02:23:35.817Z,73.05
2023-05-20T02:25:38.407Z,73.25
2023-05-20T02:27:41.060Z,72.97
2023-05-20T02:29:45.632Z,73.01
2023-05-20T02:31:48.966Z,72.99
2023-05-20T02:33:51.584Z,72.93
2023-05-20T02:35:54.177Z,73.11
2023-05-20T02:37:56.828Z,73.15
2023-05-20T02:39:59.455Z,73.14
2023-05-20T02:42:02.052Z,72.85
2023-05-20T02:44:04.665Z,72.82
2023-05-20T02:46:08.648Z,72.70
2023-05-20T02:48:11.271Z,72.72
2023-05-20T02:50:13.898Z,72.36
2023-05-20T02:52:16.815Z,72.40
2023-05-20T02:54:19.406Z,72.15
2023-05-20T02:56:22.029Z,72.28
2023-05-20T02:58:26.406Z,71.86
2023-05-20T03:00:31.273Z,71.98
2023-05-20T03:02:35.366Z,72.09
2023-05-20T03:04:39.087Z,72.13
2023-05-20T03:06:44.321Z,72.20
2023-05-20T03:08:46.967Z,72.06
2023-05-20T03:10:50.007Z,72.24
2023-05-20T03:12:52.603Z,72.31
2023-05-20T03:14:55.432Z,72.15
2023-05-20T03:16:58.071Z,72.04
2023-05-20T03:19:02.251Z,71.54
2023-05-20T03:21:05.190Z,71.46
2023-05-20T03:23:08.324Z,72.04
2023-05-20T03:25:11.189Z,71.77
2023-05-20T03:27:13.786Z,72.03
2023-05-20T03:29:19.024Z,72.08
2023-05-20T03:31:21.676Z,71.84
2023-05-20T03:33:26.274Z,72.05
2023-05-20T03:35:30.452Z,72.12
2023-05-20T03:37:33.230Z,72.24
2023-05-20T03:39:35.835Z,72.56
2023-05-20T03:41:38.908Z,72.41
2023-05-20T03:43:41.540Z,72.59
2023-05-20T03:45:44.223Z,72.54
2023-05-20T03:47:46.844Z,72.52
2023-05-20T03:49:49.491Z,73.05
2023-05-20T03:51:53.386Z,73.23
2023-05-20T03:53:55.976Z,73.46
2023-05-20T03:55:58.606Z,73.57
2023-05-20T03:58:01.793Z,73.53
2023-05-20T04:00:09.938Z,73.64
2023-05-20T04:02:12.660Z,73.65
2023-05-20T04:04:15.673Z,73.59
2023-05-20T04:06:18.441Z,73.43
2023-05-20T04:08:25.858Z,73.64
2023-05-20T04:10:28.513Z,73.53
2023-05-20T04:12:32.386Z,73.78
2023-05-20T04:14:35.816Z,73.79
2023-05-20T04:16:38.877Z,73.72
2023-05-20T04:18:41.567Z,73.90
2023-05-20T04:20:44.721Z,73.90
2023-05-20T04:22:48.206Z,73.88
2023-05-20T04:24:52.244Z,73.65
2023-05-20T04:26:54.899Z,73.81
2023-05-20T04:28:59.004Z,73.92
2023-05-20T04:31:02.766Z,73.86
2023-05-20T04:33:06.270Z,74.01
2023-05-20T04:35:12.068Z,73.96
2023-05-20T04:37:15.503Z,73.99
2023-05-20T04:39:19.007Z,74.00
2023-05-20T04:41:23.978Z,73.87
2023-05-20T04:43:29.839Z,73.85
2023-05-20T04:45:33.851Z,73.70
2023-05-20T04:47:38.826Z,73.82
2023-05-20T04:49:42.249Z,73.88
2023-05-20T04:51:44.997Z,73.81
2023-05-20T04:53:47.571Z,73.87
2023-05-20T04:55:53.858Z,73.90
2023-05-20T04:57:57.807Z,73.85
2023-05-20T05:00:00.552Z,73.44
2023-05-20T05:02:03.133Z,73.79
2023-05-20T05:04:06.178Z,74.01
2023-05-20T05:06:08.788Z,73.85
2023-05-20T05:08:12.524Z,73.89
2023-05-20T05:10:15.725Z,73.91
2023-05-20T05:12:18.349Z,73.81
2023-05-20T05:14:22.317Z,73.55
2023-05-20T05:16:24.989Z,73.72
2023-05-20T05:18:27.766Z,73.59
2023-05-20T05:20:30.379Z,73.37
2023-05-20T05:22:35.414Z,73.48
2023-05-20T05:24:38.021Z,73.47
2023-05-20T05:26:40.618Z,73.41
2023-05-20T05:28:43.957Z,72.95
2023-05-20T05:30:47.912Z,73.29
2023-05-20T05:32:50.619Z,73.33
2023-05-20T05:34:53.293Z,73.38
2023-05-20T05:36:55.892Z,73.59
2023-05-20T05:38:58.478Z,73.46
2023-05-20T05:41:01.045Z,73.41
2023-05-20T05:43:03.753Z,73.29
2023-05-20T05:45:07.224Z,73.47
2023-05-20T05:47:11.556Z,72.94
2023-05-20T05:49:14.250Z,73.31
2023-05-20T05:51:16.905Z,73.25
2023-05-20T05:53:19.505Z,73.48
2023-05-20T05:55:23.764Z,73.17
2023-05-20T05:57:26.305Z,73.44
2023-05-20T05:59:28.916Z,73.27
2023-05-20T06:01:31.563Z,73.19
2023-05-20T06:03:37.329Z,73.20
2023-05-20T06:05:40.020Z,73.31
2023-05-20T06:07:42.736Z,73.23
2023-05-20T06:09:45.792Z,73.29
2023-05-20T06:11:48.365Z,73.34
2023-05-20T06:13:51.154Z,73.17
2023-05-20T06:15:54.166Z,73.07
2023-05-20T06:17:56.832Z,73.12
2023-05-20T06:20:00.870Z,73.11
2023-05-20T06:22:03.540Z,73.15
2023-05-20T06:24:06.980Z,73.01
2023-05-20T06:26:09.649Z,73.03
2023-05-20T06:28:12.701Z,73.23
2023-05-20T06:30:15.506Z,73.25
2023-05-20T06:32:18.115Z,73.08
2023-05-20T06:34:20.852Z,73.22
2023-05-20T06:36:24.793Z,73.35
2023-05-20T06:38:27.396Z,73.39
2023-05-20T06:40:30.121Z,73.50
2023-05-20T06:42:32.721Z,73.68
2023-05-20T06:44:35.314Z,73.87
2023-05-20T06:46:37.971Z,73.88
2023-05-20T06:48:40.751Z,74.24
2023-05-20T06:50:43.349Z,74.17
2023-05-20T06:52:47.277Z,74.29
2023-05-20T06:54:49.843Z,74.15
2023-05-20T06:56:52.421Z,74.07
2023-05-20T06:58:55.884Z,74.06
2023-05-20T07:00:58.444Z,74.16
2023-05-20T07:03:01.092Z,74.26
2023-05-20T07:05:03.747Z,74.27
2023-05-20T07:07:06.727Z,74.42
2023-05-20T07:09:13.081Z,74.56
2023-05-20T07:11:15.800Z,74.56
2023-05-20T07:13:19.424Z,74.49
2023-05-20T07:15:22.048Z,74.52
2023-05-20T07:17:25.083Z,74.55
2023-05-20T07:19:27.810Z,74.65
2023-05-20T07:21:30.874Z,74.79
2023-05-20T07:23:33.510Z,75.03
2023-05-20T07:25:37.455Z,74.87
2023-05-20T07:27:40.049Z,74.75
2023-05-20T07:29:42.706Z,74.81
2023-05-20T07:31:45.327Z,74.84
2023-05-20T07:33:47.927Z,74.83
2023-05-20T07:35:50.592Z,74.80
2023-05-20T07:37:53.207Z,74.71
2023-05-20T07:39:56.074Z,74.70
2023-05-20T07:42:00.099Z,74.91
2023-05-20T07:44:03.796Z,75.22
2023-05-20T07:46:06.702Z,75.35
2023-05-20T07:48:10.862Z,75.26
2023-05-20T07:50:13.562Z,75.06
2023-05-20T07:52:16.181Z,74.71
2023-05-20T07:54:18.818Z,74.78
2023-05-20T07:56:21.657Z,74.52
2023-05-20T07:58:25.642Z,74.27
2023-05-20T08:00:28.269Z,73.99
2023-05-20T08:02:30.937Z,73.68
2023-05-20T08:04:33.747Z,73.69
2023-05-20T08:06:36.853Z,73.72
2023-05-20T08:08:40.450Z,73.96
2023-05-20T08:10:43.051Z,74.19
2023-05-20T08:12:46.105Z,73.85
2023-05-20T08:14:50.049Z,73.21
2023-05-20T08:16:54.839Z,72.51
2023-05-20T08:18:57.830Z,72.91
2023-05-20T08:21:00.934Z,72.83
2023-05-20T08:23:03.542Z,72.95
2023-05-20T08:25:10.016Z,73.28
2023-05-20T08:27:12.634Z,73.11
2023-05-20T08:29:15.219Z,72.93
2023-05-20T08:31:19.253Z,72.29
2023-05-20T08:33:22.618Z,72.21
2023-05-20T08:35:25.415Z,73.07
2023-05-20T08:37:28.122Z,73.11
2023-05-20T08:39:30.711Z,72.75
2023-05-20T08:41:33.347Z,72.69
2023-05-20T08:43:36.512Z,72.45
2023-05-20T08:45:40.066Z,72.49
2023-05-20T08:47:44.736Z,72.22
2023-05-20T08:49:47.387Z,72.19
2023-05-20T08:51:50.026Z,71.88
2023-05-20T08:53:53.059Z,71.54
2023-05-20T08:56:01.007Z,71.30
2023-05-20T08:58:04.609Z,71.34
2023-05-20T09:00:13.400Z,71.30
2023-05-20T09:02:16.403Z,71.34
2023-05-20T09:04:20.403Z,70.98
2023-05-20T09:06:24.039Z,70.52
2023-05-20T09:08:27.254Z,70.22
2023-05-20T09:10:29.940Z,70.16
2023-05-20T09:12:34.219Z,70.39
2023-05-20T09:14:36.856Z,70.39
2023-05-20T09:16:41.115Z,70.02
2023-05-20T09:18:43.926Z,69.69
2023-05-20T09:20:52.867Z,69.63
2023-05-20T09:22:55.667Z,69.80
2023-05-20T09:24:58.533Z,70.07
2023-05-20T09:27:01.300Z,71.10
2023-05-20T09:29:03.881Z,70.50
2023-05-20T09:31:06.750Z,70.57
2023-05-20T09:33:09.509Z,70.79
2023-05-20T09:35:14.436Z,70.79
2023-05-20T09:37:20.283Z,70.39
2023-05-20T09:39:26.917Z,70.13
2023-05-20T09:41:35.425Z,69.60
2023-05-20T09:43:39.105Z,68.71
2023-05-20T09:45:42.775Z,68.28
2023-05-20T09:47:47.605Z,68.24
2023-05-20T09:49:52.584Z,68.37
2023-05-20T09:51:57.152Z,68.58
2023-05-20T09:54:03.610Z,66.63
2023-05-20T09:56:06.853Z,66.55
2023-05-20T09:58:13.686Z,66.50
2023-05-20T10:00:18.539Z,66.25
2023-05-20T10:02:21.673Z,66.74
2023-05-20T10:04:26.628Z,67.22
2023-05-20T10:07:11.793Z,66.73
2023-05-20T10:09:33.548Z,66.77
2023-05-20T10:11:42.154Z,66.98
2023-05-20T10:14:04.956Z,67.17
2023-05-20T10:16:18.979Z,67.60
2023-05-20T10:18:33.725Z,67.64
2023-05-20T10:20:46.609Z,67.44
2023-05-20T10:22:57.544Z,67.81
2023-05-20T10:25:06.691Z,67.32
2023-05-20T10:27:11.061Z,66.60
2023-05-20T10:29:17.474Z,67.25
2023-05-20T10:31:23.642Z,67.53
2023-05-20T10:33:27.490Z,66.80
2023-05-20T10:35:30.187Z,67.11
2023-05-20T10:37:34.444Z,66.93
2023-05-20T10:39:37.031Z,66.70
2023-05-20T10:41:41.080Z,66.29
2023-05-20T10:43:44.831Z,65.10
2023-05-20T10:45:52.426Z,65.69
2023-05-20T10:47:56.821Z,65.68
2023-05-20T10:50:01.583Z,65.79
2023-05-20T10:52:04.806Z,65.46
2023-05-20T10:54:11.510Z,65.47
2023-05-20T10:56:18.408Z,65.53
2023-05-20T10:58:23.004Z,65.58
2023-05-20T11:00:26.182Z,65.71
2023-05-20T11:02:29.670Z,65.29
2023-05-20T11:04:33.489Z,65.27
2023-05-20T11:06:36.067Z,65.09
2023-05-20T11:08:38.712Z,65.14
2023-05-20T11:10:43.360Z,65.16
2023-05-20T11:12:46.158Z,64.29
2023-05-20T11:14:51.544Z,64.90
2023-05-20T11:16:57.100Z,63.88
2023-05-20T11:18:59.814Z,63.53
2023-05-20T11:21:03.442Z,63.42
2023-05-20T11:23:07.419Z,63.09
2023-05-20T11:25:10.996Z,63.76
2023-05-20T11:27:13.640Z,62.90
2023-05-20T11:29:16.498Z,62.79
2023-05-20T11:31:20.574Z,63.62
2023-05-20T11:33:27.215Z,63.09
2023-05-20T11:35:32.298Z,62.86
2023-05-20T11:37:37.261Z,63.33
2023-05-20T11:39:40.328Z,64.23
2023-05-20T11:41:44.065Z,63.38
2023-05-20T11:43:46.862Z,62.78
2023-05-20T11:45:54.622Z,62.65
2023-05-20T11:48:02.850Z,62.60
2023-05-20T11:50:06.104Z,62.62
2023-05-20T11:52:11.395Z,63.01
2023-05-20T11:54:13.995Z,62.58
2023-05-20T11:56:16.590Z,62.81
2023-05-20T11:58:20.829Z,63.33
2023-05-20T12:00:24.996Z,64.19
2023-05-20T12:02:28.236Z,63.66
2023-05-20T12:04:32.282Z,63.12
2023-05-20T12:06:35.029Z,63.86
2023-05-20T12:08:37.675Z,63.53
2023-05-20T12:10:40.273Z,63.15
2023-05-20T12:12:43.981Z,63.08
2023-05-20T12:14:46.599Z,63.09
2023-05-20T12:16:49.202Z,62.96
2023-05-20T12:18:51.861Z,62.72
2023-05-20T12:20:55.992Z,62.67
2023-05-20T12:22:59.844Z,62.56
2023-05-20T12:25:02.464Z,62.39
2023-05-20T12:27:06.395Z,61.69
2023-05-20T12:29:09.017Z,61.37
2023-05-20T12:31:11.648Z,60.00
2023-05-20T12:33:14.292Z,59.29
2023-05-20T12:35:17.067Z,59.07
2023-05-20T12:37:21.132Z,59.60
2023-05-20T12:39:23.775Z,60.50
2023-05-20T12:41:26.406Z,60.50
2023-05-20T12:43:29.235Z,60.04
2023-05-20T12:45:32.215Z,60.57
2023-05-20T12:47:35.699Z,59.91
2023-05-20T12:49:38.314Z,59.22
2023-05-20T12:51:41.249Z,59.63
2023-05-20T12:53:45.471Z,58.61
2023-05-20T12:55:48.109Z,58.19
2023-05-20T12:57:51.098Z,58.07
2023-05-20T12:59:53.708Z,59.18
2023-05-20T13:01:56.719Z,58.25
2023-05-20T13:03:59.393Z,58.15
2023-05-20T13:06:02.068Z,58.13
2023-05-20T13:08:04.839Z,59.45
2023-05-20T13:10:10.462Z,59.45
2023-05-20T13:12:13.202Z,59.50
2023-05-20T13:14:17.449Z,59.58
2023-05-20T13:16:20.316Z,60.41
2023-05-20T13:18:22.940Z,60.71
2023-05-20T13:20:25.805Z,60.92
2023-05-20T13:22:28.448Z,61.16
2023-05-20T13:24:31.167Z,60.72
2023-05-20T13:26:35.109Z,59.44
2023-05-20T13:28:37.745Z,58.92
2023-05-20T13:30:40.402Z,58.51
2023-05-20T13:32:43.092Z,58.13
2023-05-20T13:34:45.896Z,57.90
2023-05-20T13:36:48.799Z,57.19
2023-05-20T13:38:51.491Z,56.43
2023-05-20T13:40:54.085Z,56.25
2023-05-20T13:42:58.093Z,56.10
2023-05-20T13:45:00.814Z,56.09
2023-05-20T13:47:03.466Z,55.52
2023-05-20T13:49:06.408Z,54.92
2023-05-20T13:51:09.111Z,54.00
2023-05-20T13:53:13.722Z,53.06
2023-05-20T13:55:16.769Z,52.82
2023-05-20T13:57:19.654Z,50.85
2023-05-20T13:59:23.598Z,51.43
2023-05-20T14:01:26.201Z,49.66
2023-05-20T14:03:28.856Z,49.98
2023-05-20T14:05:32.490Z,49.98
2023-05-20T14:07:35.093Z,48.90
2023-05-20T14:09:37.992Z,49.19
2023-05-20T14:11:40.706Z,47.87
2023-05-20T14:13:44.439Z,48.39
2023-05-20T14:15:49.176Z,48.68
2023-05-20T14:17:51.828Z,47.24
2023-05-20T14:19:54.445Z,48.21
2023-05-20T14:21:58.853Z,49.66
2023-05-20T14:24:01.964Z,50.34
2023-05-20T14:26:04.638Z,49.98
2023-05-20T14:28:07.437Z,49.99
2023-05-20T14:30:11.217Z,50.60
2023-05-20T14:32:15.250Z,50.99
2023-05-20T14:34:17.949Z,51.52
2023-05-20T14:36:20.611Z,51.54
2023-05-20T14:38:23.488Z,51.51
2023-05-20T14:40:26.112Z,52.09
2023-05-20T14:42:28.748Z,53.85
2023-05-20T14:44:31.542Z,54.20
2023-05-20T14:46:34.389Z,53.28
2023-05-20T14:48:38.393Z,53.33
2023-05-20T14:50:40.959Z,56.39
2023-05-20T14:52:43.649Z,55.99
